Fuerteventura (La Oliva), Spain
Current Conditions -  °F | °C
As of 7:30 PM on Monday 20 Oct 2014 (Local Time) from GCFV Reporting Station
Few Clouds Few Clouds  
Wind Chill: 75°   Ceiling: Unl
Heat Index: 75°   Visibility: 6mi
Dew Point: 68°   Wind: 9mph
Humidity: 78%   Direction: 170°S
Pressure: 29.97"   Gusts: NA
Location:  28.6°N, 13.93°W
Report Text: GCFV 201830Z 17008KT 9999 FEW025 24/20 Q1015
Loading
Personal Weather Stations






























Interactive Weather Map
Tropical Storm Tracking
New forecast layout! Learn more

10-Day Weather Forecast

Advertisements
Track Severe Weather on mobile